Time;durP1;ratioP1;P1;durP2;ratioP2;P2;SDS_P1;SDS_P2;PMS_P1;PMS_P2;Temp;Humidity;BMP_temperature;BMP_pressure;BME280_temperature;BME280_humidity;BME280_pressure;Samples;Min_cycle;Max_cycle;Signal;HPM_P1;HPM_P2
2023/04/06 00:00:15;;;;;;;1.73;1.63;;;12.60;41.70;;;;;;5087439;28;45318;-72
2023/04/06 00:02:42;;;;;;;2.58;1.67;;;12.60;41.80;;;;;;5087009;28;45493;-72
2023/04/06 00:05:09;;;;;;;2.22;1.60;;;12.60;41.70;;;;;;5087033;28;45234;-73
2023/04/06 00:07:36;;;;;;;2.08;1.50;;;12.60;41.90;;;;;;5087192;28;45331;-72
2023/04/06 00:10:05;;;;;;;1.80;1.50;;;12.50;41.70;;;;;;5087385;28;45316;-72
2023/04/06 00:12:32;;;;;;;2.35;1.50;;;12.50;41.70;;;;;;5086811;28;46594;-72
2023/04/06 00:14:59;;;;;;;2.05;1.10;;;12.50;41.80;;;;;;5086868;28;45285;-72
2023/04/06 00:17:26;;;;;;;2.83;1.52;;;12.50;41.80;;;;;;5087176;28;45399;-72
2023/04/06 00:19:52;;;;;;;2.20;1.70;;;12.50;42.00;;;;;;5087167;28;45297;-72
2023/04/06 00:22:19;;;;;;;1.75;1.65;;;12.50;41.90;;;;;;5086864;28;45300;-72
2023/04/06 00:24:46;;;;;;;1.65;1.55;;;12.50;41.80;;;;;;5086743;28;45123;-72
2023/04/06 00:27:15;;;;;;;1.98;1.70;;;12.40;41.80;;;;;;5086365;28;45467;-73
2023/04/06 00:29:41;;;;;;;2.25;1.58;;;12.40;41.80;;;;;;5086261;28;45424;-71
2023/04/06 00:32:08;;;;;;;1.30;1.20;;;12.40;41.90;;;;;;5086242;28;45363;-72
2023/04/06 00:34:35;;;;;;;2.15;1.67;;;12.40;41.80;;;;;;5086635;28;45351;-72
2023/04/06 00:37:02;;;;;;;1.65;1.55;;;12.40;41.90;;;;;;5086806;28;45266;-71
2023/04/06 00:39:29;;;;;;;1.65;1.50;;;12.40;41.90;;;;;;5086905;28;45427;-72
2023/04/06 00:41:56;;;;;;;1.50;1.40;;;12.30;41.90;;;;;;5086450;28;45491;-71
2023/04/06 00:44:25;;;;;;;1.90;1.67;;;12.30;41.90;;;;;;5086555;28;45349;-72
2023/04/06 00:46:52;;;;;;;1.63;1.52;;;12.30;42.10;;;;;;5086377;28;45336;-71
2023/04/06 00:49:19;;;;;;;1.45;1.35;;;12.30;42.00;;;;;;5086897;28;45368;-72
2023/04/06 00:51:46;;;;;;;2.70;1.70;;;12.30;41.90;;;;;;5086364;28;45362;-72
2023/04/06 00:54:12;;;;;;;1.83;1.27;;;12.30;42.10;;;;;;5086275;28;45336;-71
2023/04/06 00:56:39;;;;;;;2.37;1.50;;;12.30;42.00;;;;;;5086255;28;45308;-72
2023/04/06 00:59:06;;;;;;;1.63;1.48;;;12.20;42.10;;;;;;5089933;28;45476;-71
2023/04/06 01:01:34;;;;;;;2.00;1.57;;;12.20;42.10;;;;;;5089666;28;45569;-71
2023/04/06 01:04:02;;;;;;;2.73;1.67;;;12.20;42.00;;;;;;5089858;28;45337;-72
2023/04/06 01:06:29;;;;;;;2.23;1.77;;;12.20;42.00;;;;;;5090013;28;45255;-72
2023/04/06 01:08:56;;;;;;;1.70;1.40;;;12.20;42.10;;;;;;5090128;28;45397;-71
2023/04/06 01:11:23;;;;;;;2.13;1.53;;;12.20;42.10;;;;;;5089400;28;46675;-71
2023/04/06 01:13:49;;;;;;;1.63;1.52;;;12.10;42.10;;;;;;5089009;28;45331;-71
2023/04/06 01:16:16;;;;;;;1.42;1.20;;;12.10;42.10;;;;;;5089761;28;45478;-72
2023/04/06 01:18:44;;;;;;;2.55;1.80;;;12.10;42.10;;;;;;5089945;28;45312;-71
2023/04/06 01:21:15;;;;;;;1.60;1.50;;;12.00;42.10;;;;;;5089656;28;45537;-72
2023/04/06 01:23:44;;;;;;;2.07;1.50;;;12.00;42.10;;;;;;5089516;28;45403;-71
2023/04/06 01:26:11;;;;;;;1.90;1.43;;;12.00;42.10;;;;;;5088751;28;45423;-72
2023/04/06 01:28:38;;;;;;;3.07;1.70;;;12.00;42.20;;;;;;5089070;28;45480;-72
2023/04/06 01:31:05;;;;;;;2.25;1.40;;;12.00;42.20;;;;;;5088903;28;45281;-71
2023/04/06 01:33:32;;;;;;;3.88;1.67;;;12.00;42.20;;;;;;5088545;28;45336;-71
2023/04/06 01:35:59;;;;;;;3.53;1.70;;;11.90;42.10;;;;;;5088697;28;45398;-71
2023/04/06 01:38:26;;;;;;;2.60;1.75;;;11.90;42.30;;;;;;5088847;28;45515;-71
2023/04/06 01:40:54;;;;;;;2.00;1.77;;;11.90;42.20;;;;;;5088509;28;45363;-72
2023/04/06 01:43:21;;;;;;;1.80;1.40;;;11.90;42.20;;;;;;5088483;28;45377;-71
2023/04/06 01:45:48;;;;;;;3.10;1.50;;;11.90;42.20;;;;;;5088620;28;45391;-71
2023/04/06 01:48:15;;;;;;;3.27;1.83;;;11.90;42.20;;;;;;5088574;28;45400;-71
2023/04/06 01:50:42;;;;;;;1.70;1.60;;;11.90;42.20;;;;;;5088371;28;45560;-72
2023/04/06 01:53:08;;;;;;;3.13;1.67;;;11.80;42.30;;;;;;5088210;28;45132;-72
2023/04/06 01:55:35;;;;;;;1.50;1.40;;;11.80;42.20;;;;;;5088507;28;45311;-71
2023/04/06 01:58:03;;;;;;;1.70;1.43;;;11.80;42.20;;;;;;5088528;28;45518;-72
2023/04/06 02:00:30;;;;;;;2.40;1.80;;;11.80;42.20;;;;;;5088130;28;46409;-72
2023/04/06 02:02:57;;;;;;;1.50;1.40;;;11.80;42.30;;;;;;5088132;28;45273;-71
2023/04/06 02:05:24;;;;;;;2.30;1.70;;;11.70;42.20;;;;;;5088347;28;45397;-71
2023/04/06 02:07:51;;;;;;;2.37;1.70;;;11.70;42.40;;;;;;5088701;28;45343;-71
2023/04/06 02:10:18;;;;;;;1.50;1.40;;;11.70;42.40;;;;;;5086884;27;45565;-71
2023/04/06 02:12:45;;;;;;;2.30;1.67;;;11.70;42.40;;;;;;5087869;28;45394;-71
2023/04/06 02:15:13;;;;;;;1.77;1.57;;;11.70;42.30;;;;;;5088254;28;45305;-71
2023/04/06 02:17:40;;;;;;;1.83;1.57;;;11.70;42.40;;;;;;5088259;28;45471;-71
2023/04/06 02:20:07;;;;;;;2.23;1.70;;;11.60;42.40;;;;;;5088032;28;46373;-71
2023/04/06 02:22:35;;;;;;;2.20;1.57;;;11.60;42.30;;;;;;5087849;28;45293;-71
2023/04/06 02:25:02;;;;;;;3.03;1.77;;;11.60;42.40;;;;;;5087831;28;45285;-71
2023/04/06 02:27:29;;;;;;;1.50;1.40;;;11.60;42.40;;;;;;5087949;28;45360;-71
2023/04/06 02:29:55;;;;;;;2.90;1.70;;;11.60;42.40;;;;;;5087693;28;46682;-71
2023/04/06 02:32:24;;;;;;;1.43;1.33;;;11.50;42.30;;;;;;5087614;28;45337;-71
2023/04/06 02:34:50;;;;;;;1.40;1.30;;;11.50;42.30;;;;;;5087931;28;45249;-71
2023/04/06 02:37:21;;;;;;;1.50;1.40;;;11.50;42.40;;;;;;5087971;28;45262;-71
2023/04/06 02:39:48;;;;;;;1.90;1.50;;;11.50;42.40;;;;;;5087461;28;46253;-71
2023/04/06 02:42:16;;;;;;;1.80;1.50;;;11.50;42.40;;;;;;5087630;28;45367;-71
2023/04/06 02:44:42;;;;;;;2.70;1.50;;;11.50;42.50;;;;;;5087869;28;45189;-71
2023/04/06 02:47:09;;;;;;;1.47;1.20;;;11.50;42.50;;;;;;5087634;28;45223;-71
2023/04/06 02:49:37;;;;;;;2.00;1.80;;;11.50;42.50;;;;;;5087422;28;45252;-72
2023/04/06 02:52:04;;;;;;;2.20;1.53;;;11.50;42.50;;;;;;5087374;28;45366;-71
2023/04/06 02:54:31;;;;;;;2.03;1.83;;;11.40;42.40;;;;;;5087504;28;45358;-71
2023/04/06 02:56:58;;;;;;;3.23;1.70;;;11.40;42.50;;;;;;5087646;28;45311;-71
2023/04/06 02:59:25;;;;;;;1.60;1.50;;;11.40;42.40;;;;;;5087339;28;45286;-71
2023/04/06 03:01:52;;;;;;;2.63;1.60;;;11.40;42.60;;;;;;5087244;28;45258;-71
2023/04/06 03:04:19;;;;;;;1.60;1.50;;;11.40;42.60;;;;;;5087555;28;45257;-71
2023/04/06 03:06:47;;;;;;;2.10;1.70;;;11.40;42.50;;;;;;5087446;28;45396;-71
2023/04/06 03:09:15;;;;;;;1.40;1.30;;;11.30;42.60;;;;;;5086910;28;46749;-71
2023/04/06 03:11:41;;;;;;;1.60;1.33;;;11.30;42.50;;;;;;5087283;28;45281;-71
2023/04/06 03:14:08;;;;;;;1.70;1.60;;;11.30;42.60;;;;;;5087177;28;45298;-71
2023/04/06 03:16:35;;;;;;;2.53;1.77;;;11.30;42.50;;;;;;5087116;28;45404;-71
2023/04/06 03:19:02;;;;;;;1.87;1.60;;;11.30;42.50;;;;;;5086916;28;45494;-71
2023/04/06 03:21:29;;;;;;;1.70;1.60;;;11.20;42.40;;;;;;5086647;27;45270;-71
2023/04/06 03:23:57;;;;;;;2.57;1.50;;;11.20;42.50;;;;;;5087062;28;45241;-71
2023/04/06 03:26:24;;;;;;;4.27;1.40;;;11.30;42.60;;;;;;5086733;28;45367;-71
2023/04/06 03:28:50;;;;;;;2.20;1.70;;;11.20;42.50;;;;;;5086656;28;48608;-71
2023/04/06 03:31:20;;;;;;;1.83;1.20;;;11.20;42.60;;;;;;5086970;28;45336;-71
2023/04/06 03:33:47;;;;;;;1.67;1.57;;;11.20;42.60;;;;;;5086754;28;45346;-71
2023/04/06 03:36:16;;;;;;;1.90;1.70;;;11.20;42.60;;;;;;5087168;28;45293;-71
2023/04/06 03:38:43;;;;;;;2.30;1.73;;;11.20;42.60;;;;;;5086626;28;46920;-71
2023/04/06 03:41:11;;;;;;;1.70;1.60;;;11.10;42.60;;;;;;5086737;28;45127;-71
2023/04/06 03:43:38;;;;;;;1.73;1.57;;;11.10;42.60;;;;;;5086720;28;45341;-71
2023/04/06 03:46:05;;;;;;;1.50;1.40;;;11.10;42.70;;;;;;5086890;28;45440;-71
2023/04/06 03:48:32;;;;;;;2.33;1.70;;;11.10;42.60;;;;;;5083809;28;45398;-71
2023/04/06 03:50:59;;;;;;;1.93;1.60;;;11.10;42.70;;;;;;5086541;28;45335;-71
2023/04/06 03:53:25;;;;;;;3.43;1.70;;;11.00;42.70;;;;;;5086637;28;45281;-71
2023/04/06 03:55:52;;;;;;;1.53;1.43;;;11.10;42.70;;;;;;5086785;28;45337;-71
2023/04/06 03:58:20;;;;;;;1.60;1.40;;;11.00;42.60;;;;;;5086319;28;45315;-71
2023/04/06 04:00:47;;;;;;;3.13;1.63;;;11.00;42.70;;;;;;5086438;28;45262;-71
2023/04/06 04:03:14;;;;;;;1.80;1.53;;;11.00;42.70;;;;;;5086528;28;45245;-71
2023/04/06 04:05:41;;;;;;;1.60;1.50;;;11.00;42.60;;;;;;5086676;28;45413;-71
2023/04/06 04:08:08;;;;;;;2.00;1.60;;;11.00;42.60;;;;;;5086149;28;46751;-71
2023/04/06 04:10:34;;;;;;;2.70;1.70;;;11.00;42.80;;;;;;5086207;28;45355;-71
2023/04/06 04:13:01;;;;;;;2.30;1.67;;;11.00;42.70;;;;;;5086290;28;45298;-72
2023/04/06 04:15:29;;;;;;;2.20;1.50;;;10.90;42.60;;;;;;5086496;28;45341;-71
2023/04/06 04:17:56;;;;;;;1.90;1.47;;;10.90;42.60;;;;;;5085833;28;46431;-72
2023/04/06 04:20:23;;;;;;;1.67;1.10;;;10.90;42.70;;;;;;5086003;28;45377;-71
2023/04/06 04:22:50;;;;;;;2.03;1.47;;;10.90;42.70;;;;;;5086175;28;45460;-71
2023/04/06 04:25:17;;;;;;;2.57;1.53;;;10.90;42.70;;;;;;5086091;28;45450;-71
2023/04/06 04:27:43;;;;;;;2.03;1.40;;;10.90;42.70;;;;;;5085773;28;46404;-72
2023/04/06 04:30:11;;;;;;;2.60;1.57;;;10.80;42.80;;;;;;5086208;28;45388;-71
2023/04/06 04:32:39;;;;;;;1.60;1.50;;;10.80;42.60;;;;;;5085086;28;45265;-72
2023/04/06 04:35:06;;;;;;;1.93;1.30;;;10.80;42.60;;;;;;5086051;28;45372;-72
2023/04/06 04:37:34;;;;;;;1.40;1.30;;;10.80;42.60;;;;;;5085581;28;46762;-71
2023/04/06 04:40:01;;;;;;;1.50;1.37;;;10.80;42.70;;;;;;5085841;28;45265;-71
2023/04/06 04:42:28;;;;;;;3.20;1.67;;;10.80;42.80;;;;;;5085904;28;45134;-71
2023/04/06 04:44:55;;;;;;;2.00;1.40;;;10.80;42.60;;;;;;5086156;28;45339;-71
2023/04/06 04:47:21;;;;;;;1.30;1.20;;;10.70;42.70;;;;;;5085531;28;45409;-72
2023/04/06 04:49:50;;;;;;;1.93;1.40;;;10.70;42.70;;;;;;5085560;28;45339;-71
2023/04/06 04:52:16;;;;;;;1.57;1.40;;;10.70;42.70;;;;;;5085774;28;45295;-72
2023/04/06 04:54:43;;;;;;;1.97;1.40;;;10.70;42.70;;;;;;5085898;28;45371;-71
2023/04/06 04:57:10;;;;;;;1.63;1.37;;;10.70;42.70;;;;;;5085478;28;46165;-72
2023/04/06 04:59:37;;;;;;;1.50;1.40;;;10.70;42.70;;;;;;5085374;28;45301;-72
2023/04/06 05:02:04;;;;;;;1.40;1.30;;;10.70;43.30;;;;;;5085640;28;45309;-72
2023/04/06 05:04:30;;;;;;;1.33;1.23;;;10.60;42.70;;;;;;5085768;28;45128;-71
2023/04/06 05:07:05;;;;;;;1.37;1.30;;;10.60;42.70;;;;;;5085368;28;45262;-71
2023/04/06 05:09:32;;;;;;;1.40;1.30;;;10.60;42.80;;;;;;5085477;28;45236;-71
2023/04/06 05:11:59;;;;;;;2.20;1.67;;;10.60;42.80;;;;;;5085526;28;45382;-72
2023/04/06 05:14:26;;;;;;;1.70;1.27;;;10.60;42.80;;;;;;5085597;28;45370;-72
2023/04/06 05:16:53;;;;;;;1.27;1.17;;;10.60;43.40;;;;;;5085251;28;45759;-71
2023/04/06 05:19:20;;;;;;;1.73;1.63;;;10.60;42.90;;;;;;5085344;28;45324;-71
2023/04/06 05:21:46;;;;;;;1.60;1.27;;;10.60;42.80;;;;;;5085421;28;45255;-71
2023/04/06 05:24:15;;;;;;;1.50;1.30;;;10.60;42.80;;;;;;5085550;28;45333;-71
2023/04/06 05:26:41;;;;;;;1.50;1.40;;;10.60;43.40;;;;;;5084828;28;46176;-71
2023/04/06 05:29:08;;;;;;;1.40;1.30;;;10.60;42.80;;;;;;5085253;28;45254;-71
2023/04/06 05:31:35;;;;;;;1.77;1.30;;;10.60;42.80;;;;;;5085308;28;45370;-71
2023/04/06 05:34:02;;;;;;;2.37;1.30;;;10.60;42.80;;;;;;5085207;28;45271;-72
2023/04/06 05:36:30;;;;;;;2.23;1.67;;;10.60;42.80;;;;;;5084960;28;46576;-71
2023/04/06 05:38:57;;;;;;;1.53;1.43;;;10.60;42.80;;;;;;5085116;28;45377;-71
2023/04/06 05:41:26;;;;;;;1.30;1.20;;;10.50;42.80;;;;;;5085283;28;45234;-71
2023/04/06 05:43:52;;;;;;;1.73;1.30;;;10.60;42.80;;;;;;5086585;28;45253;-71
2023/04/06 05:46:19;;;;;;;1.47;1.37;;;10.60;42.90;;;;;;5088440;28;45322;-71
2023/04/06 05:48:46;;;;;;;1.40;1.30;;;10.60;42.90;;;;;;5088498;28;45338;-71
2023/04/06 05:51:13;;;;;;;1.43;1.17;;;10.60;42.90;;;;;;5088573;28;45344;-71
2023/04/06 05:53:40;;;;;;;1.20;1.10;;;10.50;42.80;;;;;;5088703;28;45354;-71
2023/04/06 05:56:07;;;;;;;1.50;1.40;;;10.60;42.80;;;;;;5088216;28;46979;-71
2023/04/06 05:58:35;;;;;;;1.20;1.10;;;10.60;42.90;;;;;;5088271;28;45296;-71
2023/04/06 06:01:02;;;;;;;2.10;1.30;;;10.50;42.80;;;;;;5088441;28;45436;-71
2023/04/06 06:03:29;;;;;;;1.60;1.50;;;10.60;42.90;;;;;;5088417;28;45394;-71
2023/04/06 06:06:00;;;;;;;1.47;1.17;;;10.50;42.80;;;;;;5088427;28;45272;-71
2023/04/06 06:08:27;;;;;;;1.43;1.33;;;10.50;42.70;;;;;;5088077;28;45317;-71
2023/04/06 06:10:54;;;;;;;2.23;1.20;;;10.60;42.80;;;;;;5088297;28;45292;-71
2023/04/06 06:13:21;;;;;;;1.40;1.30;;;10.50;42.80;;;;;;5088236;28;45242;-71
2023/04/06 06:15:50;;;;;;;1.57;1.47;;;10.60;42.80;;;;;;5087993;28;46370;-71
2023/04/06 06:18:16;;;;;;;2.03;1.50;;;10.50;42.80;;;;;;5088032;28;45384;-71
2023/04/06 06:20:43;;;;;;;2.70;1.70;;;10.50;42.80;;;;;;5088215;28;45456;-71
2023/04/06 06:23:10;;;;;;;1.57;1.20;;;10.60;42.90;;;;;;5088214;28;45392;-72
2023/04/06 06:25:37;;;;;;;1.13;1.13;;;10.60;42.90;;;;;;5087463;27;46879;-71
2023/04/06 06:28:04;;;;;;;1.37;1.23;;;10.60;42.80;;;;;;5087730;28;45259;-71
2023/04/06 06:30:30;;;;;;;1.90;1.10;;;10.60;42.80;;;;;;5087920;28;45387;-71
2023/04/06 06:32:59;;;;;;;1.40;1.30;;;10.60;42.80;;;;;;5087876;28;45446;-71
2023/04/06 06:35:26;;;;;;;2.43;1.60;;;10.60;42.80;;;;;;5087544;28;46603;-71
2023/04/06 06:37:53;;;;;;;1.47;1.10;;;10.60;42.80;;;;;;5087620;28;45339;-71
2023/04/06 06:40:23;;;;;;;2.00;1.60;;;10.60;42.80;;;;;;5087890;28;45312;-71
2023/04/06 06:42:50;;;;;;;1.93;1.47;;;10.60;42.80;;;;;;5087846;28;45405;-71
2023/04/06 06:45:17;;;;;;;1.87;1.47;;;10.60;42.80;;;;;;5087539;28;45323;-71
2023/04/06 06:47:44;;;;;;;2.00;1.37;;;10.60;42.80;;;;;;5087399;28;45150;-71
2023/04/06 06:50:12;;;;;;;2.47;1.70;;;10.60;42.80;;;;;;5086089;27;45545;-70
2023/04/06 06:52:40;;;;;;;1.80;1.40;;;10.60;42.70;;;;;;5088648;27;45525;-71
2023/04/06 06:55:07;;;;;;;2.73;1.83;;;10.60;42.70;;;;;;5098012;27;45526;-68
2023/04/06 06:57:35;;;;;;;2.67;2.10;;;10.60;42.90;;;;;;5073281;28;45192;-67
2023/04/06 07:00:05;;;;;;;2.43;2.10;;;10.60;42.80;;;;;;5067299;28;45474;-72
2023/04/06 07:02:32;;;;;;;2.60;1.93;;;10.60;42.70;;;;;;5087553;27;45342;-71
2023/04/06 07:04:59;;;;;;;1.93;1.83;;;10.60;42.80;;;;;;5086946;28;46743;-72
2023/04/06 07:07:27;;;;;;;7.20;1.90;;;10.60;42.80;;;;;;5086882;28;45397;-70
2023/04/06 07:09:54;;;;;;;2.00;1.80;;;10.60;43.40;;;;;;5087010;28;45382;-68
2023/04/06 07:12:21;;;;;;;2.03;1.67;;;10.70;42.80;;;;;;5087140;28;45315;-70
2023/04/06 07:14:48;;;;;;;1.97;1.77;;;10.70;42.90;;;;;;5086770;28;47607;-69
2023/04/06 07:17:14;;;;;;;3.80;1.40;;;10.70;42.80;;;;;;5086051;28;45264;-70
2023/04/06 07:19:41;;;;;;;2.47;1.93;;;10.70;42.80;;;;;;5087018;28;45380;-68
2023/04/06 07:22:08;;;;;;;3.37;1.43;;;10.80;42.80;;;;;;5087116;28;45387;-66
2023/04/06 07:24:37;;;;;;;2.00;1.83;;;10.80;42.70;;;;;;5086554;28;45472;-69
2023/04/06 07:27:03;;;;;;;2.67;1.70;;;10.80;42.80;;;;;;5086312;28;45245;-70
2023/04/06 07:29:30;;;;;;;3.30;1.90;;;10.90;42.90;;;;;;5086758;28;45284;-66
2023/04/06 07:31:57;;;;;;;5.27;1.80;;;10.90;43.00;;;;;;5086984;28;45309;-69
2023/04/06 07:34:24;;;;;;;2.10;1.60;;;10.90;43.00;;;;;;5086322;28;45481;-72
2023/04/06 07:36:52;;;;;;;1.77;1.67;;;10.90;43.00;;;;;;5086335;28;45432;-69
2023/04/06 07:39:19;;;;;;;3.03;1.50;;;10.90;43.10;;;;;;5086534;28;45167;-69
2023/04/06 07:41:47;;;;;;;2.07;1.83;;;10.90;43.10;;;;;;5086717;28;45390;-68
2023/04/06 07:44:14;;;;;;;1.47;1.37;;;11.00;43.10;;;;;;5086123;28;46281;-69
2023/04/06 07:46:41;;;;;;;3.07;1.50;;;11.00;43.10;;;;;;5086234;28;45306;-68
2023/04/06 07:49:08;;;;;;;2.03;1.53;;;11.00;43.00;;;;;;5086141;28;45253;-69
2023/04/06 07:51:37;;;;;;;1.80;1.70;;;11.00;43.00;;;;;;5086475;28;45406;-69
2023/04/06 07:54:03;;;;;;;2.27;1.43;;;11.00;43.00;;;;;;5085836;28;46747;-69
2023/04/06 07:56:30;;;;;;;2.20;1.63;;;11.00;43.00;;;;;;5085954;28;45317;-69
2023/04/06 07:58:58;;;;;;;1.50;1.30;;;11.10;43.00;;;;;;5086249;28;45150;-70
2023/04/06 08:01:26;;;;;;;2.37;1.47;;;11.10;43.00;;;;;;5086277;28;45190;-69
2023/04/06 08:03:54;;;;;;;3.60;1.67;;;11.10;43.00;;;;;;5085697;28;45475;-69
2023/04/06 08:06:21;;;;;;;2.67;1.70;;;11.10;43.10;;;;;;5085470;28;45334;-70
2023/04/06 08:08:48;;;;;;;1.77;1.50;;;11.10;43.10;;;;;;5085419;28;45317;-70
2023/04/06 08:11:15;;;;;;;2.83;1.63;;;11.10;43.10;;;;;;5086099;28;45399;-70
2023/04/06 08:13:42;;;;;;;1.53;1.43;;;11.10;43.10;;;;;;5081675;27;45848;-69
2023/04/06 08:16:10;;;;;;;1.73;1.50;;;11.20;43.10;;;;;;5084460;28;45392;-68
2023/04/06 08:18:37;;;;;;;1.47;1.37;;;11.20;43.00;;;;;;5085084;28;45264;-71
2023/04/06 08:21:04;;;;;;;1.50;1.40;;;11.20;43.00;;;;;;5085275;28;45459;-69
2023/04/06 08:23:31;;;;;;;1.70;1.53;;;11.30;43.00;;;;;;5082519;28;46733;-70
2023/04/06 08:25:57;;;;;;;1.57;1.47;;;11.30;43.10;;;;;;5084030;28;45499;-69
2023/04/06 08:28:24;;;;;;;3.67;1.57;;;11.30;43.00;;;;;;5085376;28;45444;-70
2023/04/06 08:30:51;;;;;;;2.03;1.40;;;11.40;43.20;;;;;;5073290;28;45417;-70
2023/04/06 08:33:20;;;;;;;1.83;1.40;;;11.40;43.20;;;;;;5085210;28;45337;-70
2023/04/06 08:35:47;;;;;;;1.83;1.10;;;11.40;43.20;;;;;;5085066;28;45368;-71
2023/04/06 08:38:14;;;;;;;2.73;1.53;;;11.50;43.20;;;;;;5085291;28;45374;-70
2023/04/06 08:40:43;;;;;;;1.33;1.23;;;11.50;43.30;;;;;;5085340;28;45496;-71
2023/04/06 08:43:12;;;;;;;1.33;1.13;;;11.50;43.40;;;;;;5085086;28;45332;-71
2023/04/06 08:45:40;;;;;;;1.73;1.43;;;11.50;43.30;;;;;;5085072;28;45303;-70
2023/04/06 08:48:07;;;;;;;5.40;1.30;;;11.60;43.40;;;;;;5085148;28;45404;-71
2023/04/06 08:50:36;;;;;;;1.57;1.40;;;11.60;43.50;;;;;;5085133;28;45246;-70
2023/04/06 08:53:03;;;;;;;3.93;1.80;;;11.60;43.40;;;;;;5084987;28;45400;-69
2023/04/06 08:55:30;;;;;;;5.20;1.40;;;11.60;43.40;;;;;;5084987;28;45347;-70
2023/04/06 08:57:57;;;;;;;2.00;1.13;;;11.70;43.50;;;;;;5084921;28;45364;-70
2023/04/06 09:00:24;;;;;;;3.33;1.80;;;11.70;43.50;;;;;;5085126;28;45444;-70
2023/04/06 09:02:51;;;;;;;3.10;1.50;;;11.70;43.50;;;;;;5067867;28;45536;-71
2023/04/06 09:05:18;;;;;;;3.50;1.63;;;11.80;43.60;;;;;;5084924;28;45363;-70
2023/04/06 09:07:46;;;;;;;4.93;1.43;;;11.80;44.30;;;;;;5084803;28;45297;-71
2023/04/06 09:10:12;;;;;;;2.50;1.47;;;11.80;43.60;;;;;;5085039;28;45333;-69
2023/04/06 09:12:40;;;;;;;1.70;1.40;;;11.80;43.60;;;;;;5084352;28;45521;-70
2023/04/06 09:15:08;;;;;;;1.90;1.50;;;11.90;43.70;;;;;;5084468;28;45491;-70
2023/04/06 09:17:36;;;;;;;2.93;1.67;;;11.90;43.60;;;;;;5083145;28;45399;-71
2023/04/06 09:20:04;;;;;;;3.93;1.60;;;11.90;43.60;;;;;;5087967;28;45412;-71
2023/04/06 09:22:39;;;;;;;1.77;1.67;;;12.00;43.70;;;;;;5088118;28;45567;-71
2023/04/06 09:25:09;;;;;;;2.60;1.63;;;12.00;43.60;;;;;;5070530;28;45327;-71
2023/04/06 09:27:37;;;;;;;3.37;1.50;;;12.00;43.60;;;;;;5088404;28;45349;-71
2023/04/06 09:30:06;;;;;;;3.00;1.50;;;12.10;43.60;;;;;;5088348;28;45324;-71
2023/04/06 09:32:33;;;;;;;3.93;1.67;;;12.10;43.60;;;;;;5087991;28;45371;-72
2023/04/06 09:35:07;;;;;;;1.63;1.53;;;12.20;43.60;;;;;;5088090;28;45546;-70
2023/04/06 09:37:34;;;;;;;3.03;1.47;;;12.20;43.60;;;;;;5088110;28;45388;-72
2023/04/06 09:40:04;;;;;;;1.80;1.50;;;12.20;43.60;;;;;;5088139;28;45508;-71
2023/04/06 09:42:32;;;;;;;1.57;1.47;;;12.30;43.60;;;;;;5087772;28;45450;-71
2023/04/06 09:44:59;;;;;;;3.27;1.80;;;12.30;43.50;;;;;;5087949;28;45351;-70
2023/04/06 09:47:26;;;;;;;2.27;1.53;;;12.30;43.50;;;;;;5088159;28;45387;-69
2023/04/06 09:49:56;;;;;;;3.07;1.50;;;12.40;43.60;;;;;;5087638;28;45298;-72
2023/04/06 09:52:23;;;;;;;2.27;1.40;;;12.40;43.80;;;;;;5086561;28;46468;-73
2023/04/06 09:54:51;;;;;;;2.37;1.30;;;12.40;43.80;;;;;;5087475;28;45493;-71
2023/04/06 09:57:25;;;;;;;6.93;2.03;;;12.50;44.00;;;;;;5087635;28;45310;-71
2023/04/06 09:59:56;;;;;;;5.40;1.50;;;12.50;43.90;;;;;;5088080;28;45386;-73
2023/04/06 10:02:27;;;;;;;3.90;1.63;;;12.50;43.90;;;;;;5086782;28;45563;-71
2023/04/06 10:04:56;;;;;;;3.20;1.47;;;12.60;43.90;;;;;;5071009;28;45547;-71
2023/04/06 10:07:23;;;;;;;1.67;1.50;;;12.60;43.80;;;;;;5075391;28;45527;-72
2023/04/06 10:09:50;;;;;;;1.77;1.67;;;12.70;43.80;;;;;;5087539;28;45441;-73
2023/04/06 10:12:17;;;;;;;2.13;1.40;;;12.70;43.70;;;;;;5087568;28;46380;-71
2023/04/06 10:14:44;;;;;;;2.07;1.23;;;12.80;43.70;;;;;;5087344;28;45364;-72
2023/04/06 10:17:12;;;;;;;1.67;1.30;;;12.70;43.70;;;;;;5087511;28;45245;-72
2023/04/06 10:19:42;;;;;;;2.77;1.40;;;12.80;43.70;;;;;;5087710;28;45625;-72
2023/04/06 10:22:10;;;;;;;1.63;1.43;;;12.80;43.70;;;;;;5087171;28;46679;-72
2023/04/06 10:24:37;;;;;;;4.37;1.30;;;12.90;43.70;;;;;;5087308;28;45507;-71
2023/04/06 10:27:04;;;;;;;2.37;1.60;;;12.90;43.70;;;;;;5086991;28;45337;-71
2023/04/06 10:29:43;;;;;;;3.97;1.40;;;13.00;43.60;;;;;;5070596;27;45318;-72
2023/04/06 10:32:11;;;;;;;4.73;1.50;;;13.00;43.50;;;;;;5086618;28;45694;-72
2023/04/06 10:34:38;;;;;;;1.57;1.37;;;13.10;43.50;;;;;;5087004;28;45396;-72
2023/04/06 10:37:13;;;;;;;3.67;1.53;;;13.10;43.50;;;;;;5087229;28;45403;-72
2023/04/06 10:39:47;;;;;;;3.87;1.87;;;13.20;43.60;;;;;;5087277;28;45340;-72
2023/04/06 10:42:14;;;;;;;3.80;1.40;;;13.20;43.50;;;;;;5086862;28;45488;-71
2023/04/06 10:44:43;;;;;;;2.93;1.37;;;13.20;43.40;;;;;;5086819;28;45498;-72
2023/04/06 10:47:18;;;;;;;2.53;1.30;;;13.30;43.40;;;;;;5088702;27;45387;-72
2023/04/06 10:49:45;;;;;;;4.07;1.30;;;13.30;43.30;;;;;;5087032;28;45469;-72
2023/04/06 10:52:12;;;;;;;1.90;1.43;;;13.40;43.40;;;;;;5086797;28;47346;-71
2023/04/06 10:54:42;;;;;;;4.90;1.93;;;13.50;43.50;;;;;;5086626;28;45482;-72
2023/04/06 10:57:09;;;;;;;1.30;1.20;;;13.50;43.50;;;;;;5086781;28;45319;-71
2023/04/06 10:59:36;;;;;;;1.50;1.23;;;13.60;43.50;;;;;;5086996;28;45263;-71
2023/04/06 11:02:03;;;;;;;3.07;1.60;;;13.60;43.30;;;;;;5086576;28;45314;-71
2023/04/06 11:04:31;;;;;;;1.90;1.40;;;13.70;43.20;;;;;;5086582;28;45372;-72
2023/04/06 11:06:58;;;;;;;4.30;1.50;;;13.80;43.20;;;;;;5086489;28;45276;-71
2023/04/06 11:09:28;;;;;;;1.87;1.20;;;13.80;43.80;;;;;;5086614;28;45665;-71
2023/04/06 11:11:55;;;;;;;3.90;1.30;;;13.90;43.10;;;;;;5086171;28;46736;-71
2023/04/06 11:14:22;;;;;;;2.77;1.30;;;14.00;43.10;;;;;;5086261;28;45282;-72
2023/04/06 11:16:49;;;;;;;1.50;1.40;;;14.10;43.70;;;;;;5086524;28;45380;-72
2023/04/06 11:19:16;;;;;;;2.07;1.47;;;14.10;43.00;;;;;;5086571;28;45293;-72
2023/04/06 11:21:47;;;;;;;2.70;1.40;;;14.20;42.80;;;;;;5086234;28;46575;-73
2023/04/06 11:24:15;;;;;;;2.03;1.50;;;14.30;42.80;;;;;;5086373;28;45352;-73
2023/04/06 11:26:43;;;;;;;2.00;1.57;;;14.40;42.60;;;;;;5086300;28;45462;-73
2023/04/06 11:29:10;;;;;;;3.73;1.27;;;14.40;42.60;;;;;;5086246;28;45300;-72
2023/04/06 11:31:41;;;;;;;3.28;1.40;;;14.50;42.50;;;;;;5086012;28;46397;-72
2023/04/06 11:34:14;;;;;;;3.33;1.37;;;14.50;42.50;;;;;;5086029;28;45325;-73
2023/04/06 11:36:44;;;;;;;3.65;1.23;;;14.60;42.30;;;;;;5086098;28;45340;-74
2023/04/06 11:39:11;;;;;;;2.38;1.52;;;14.60;42.50;;;;;;5086284;28;45376;-73
2023/04/06 11:41:38;;;;;;;1.55;1.23;;;14.60;42.30;;;;;;5085530;28;46511;-73
2023/04/06 11:44:05;;;;;;;2.93;1.40;;;14.70;42.40;;;;;;5085828;28;45293;-73
2023/04/06 11:46:32;;;;;;;3.55;1.38;;;14.70;42.40;;;;;;5085748;28;45478;-72
2023/04/06 11:48:59;;;;;;;3.00;1.43;;;14.80;42.40;;;;;;5085860;28;45379;-71
2023/04/06 11:51:27;;;;;;;1.98;1.30;;;14.90;42.10;;;;;;5085751;28;45471;-72
2023/04/06 11:53:55;;;;;;;3.20;1.50;;;14.90;42.20;;;;;;5084827;28;45312;-72
2023/04/06 11:56:29;;;;;;;2.33;1.30;;;15.00;42.20;;;;;;5085751;28;45411;-72
2023/04/06 11:58:56;;;;;;;2.45;1.15;;;15.10;41.90;;;;;;5089753;27;45300;-73
2023/04/06 12:01:23;;;;;;;3.27;1.60;;;15.10;41.90;;;;;;5085356;28;46751;-71
2023/04/06 12:03:50;;;;;;;3.92;1.50;;;15.20;42.20;;;;;;5085715;28;45440;-65
2023/04/06 12:06:17;;;;;;;1.98;1.20;;;15.30;42.30;;;;;;5085813;28;45325;-70
2023/04/06 12:08:44;;;;;;;1.33;1.20;;;15.30;42.40;;;;;;5085717;28;45490;-70
2023/04/06 12:11:12;;;;;;;3.33;1.23;;;15.30;42.60;;;;;;5083618;27;45573;-72
2023/04/06 12:13:39;;;;;;;2.63;1.42;;;15.40;42.90;;;;;;5087465;27;45448;-69
2023/04/06 12:16:06;;;;;;;8.95;1.92;;;15.40;43.00;;;;;;5081770;27;45538;-71
2023/04/06 12:18:33;;;;;;;1.48;1.38;;;15.40;43.20;;;;;;5085546;28;45289;-71
2023/04/06 12:21:00;;;;;;;7.22;1.42;;;15.50;43.70;;;;;;5087510;27;45610;-72
2023/04/06 12:23:27;;;;;;;1.98;1.40;;;15.50;43.40;;;;;;5083863;27;45450;-72
2023/04/06 12:25:54;;;;;;;1.88;1.40;;;15.60;43.40;;;;;;5092638;27;45478;-73
2023/04/06 12:28:26;;;;;;;1.92;1.65;;;15.60;43.30;;;;;;5088024;27;45378;-73
2023/04/06 12:30:53;;;;;;;2.45;1.50;;;15.60;43.20;;;;;;5079723;27;46694;-71
2023/04/06 12:33:20;;;;;;;2.03;1.35;;;15.70;43.70;;;;;;5086695;27;45527;-72
2023/04/06 12:35:47;;;;;;;4.28;1.85;;;15.70;43.90;;;;;;5090954;27;45356;-73
2023/04/06 12:38:14;;;;;;;2.00;1.50;;;15.80;44.10;;;;;;5082957;27;45251;-74
2023/04/06 12:40:41;;;;;;;3.03;1.30;;;15.80;44.10;;;;;;5085330;28;47002;-74
2023/04/06 12:43:08;;;;;;;5.43;1.33;;;15.80;44.10;;;;;;5084698;27;45356;-74
2023/04/06 12:45:36;;;;;;;2.67;1.60;;;15.80;44.20;;;;;;5087490;27;45392;-74
2023/04/06 12:48:03;;;;;;;4.90;1.42;;;15.90;44.50;;;;;;5084706;27;45584;-73